sensor_id;sensor_type;location;lat;lon;timestamp;pressure;altitude;pressure_sealevel;temperature;humidity
8890;BME280;4481;43.406;24.454;2023-02-22T00:00:17;77151.34;;;-144.09;67.12
8890;BME280;4481;43.406;24.454;2023-02-22T00:02:45;77161.78;;;-144.09;67.28
8890;BME280;4481;43.406;24.454;2023-02-22T00:05:11;77172.22;;;-144.09;67.59
8890;BME280;4481;43.406;24.454;2023-02-22T00:07:40;77161.78;;;-144.09;67.30
8890;BME280;4481;43.406;24.454;2023-02-22T00:10:07;77176.41;;;-144.09;68.04
8890;BME280;4481;43.406;24.454;2023-02-22T00:12:38;77165.97;;;-144.09;68.08
8890;BME280;4481;43.406;24.454;2023-02-22T00:15:04;77163.88;;;-144.09;67.71
8890;BME280;4481;43.406;24.454;2023-02-22T00:17:31;77163.88;;;-144.09;67.50
8890;BME280;4481;43.406;24.454;2023-02-22T00:19:57;77153.41;;;-144.09;67.28
8890;BME280;4481;43.406;24.454;2023-02-22T00:22:23;77147.16;;;-144.09;67.16
8890;BME280;4481;43.406;24.454;2023-02-22T00:24:49;77138.78;;;-144.09;67.00
8890;BME280;4481;43.406;24.454;2023-02-22T00:27:16;77128.34;;;-144.09;66.97
8890;BME280;4481;43.406;24.454;2023-02-22T00:29:43;77126.25;;;-144.09;67.09
8890;BME280;4481;43.406;24.454;2023-02-22T00:32:10;77124.16;;;-144.09;67.04
8890;BME280;4481;43.406;24.454;2023-02-22T00:34:37;77124.16;;;-144.09;67.25
8890;BME280;4481;43.406;24.454;2023-02-22T00:37:03;77128.34;;;-144.09;67.14
8890;BME280;4481;43.406;24.454;2023-02-22T00:39:29;77134.63;;;-144.09;67.35
8890;BME280;4481;43.406;24.454;2023-02-22T00:41:56;77128.34;;;-144.09;67.41
8890;BME280;4481;43.406;24.454;2023-02-22T00:44:23;77117.91;;;-144.09;67.22
8890;BME280;4481;43.406;24.454;2023-02-22T00:46:49;77113.72;;;-144.09;66.92
8890;BME280;4481;43.406;24.454;2023-02-22T00:49:15;77103.25;;;-144.09;66.81
8890;BME280;4481;43.406;24.454;2023-02-22T00:51:41;77094.91;;;-144.09;66.39
8890;BME280;4481;43.406;24.454;2023-02-22T00:54:07;77078.19;;;-144.09;65.80
8890;BME280;4481;43.406;24.454;2023-02-22T00:56:35;77046.84;;;-144.09;65.06
8890;BME280;4481;43.406;24.454;2023-02-22T00:59:02;77042.66;;;-144.09;65.21
8890;BME280;4481;43.406;24.454;2023-02-22T01:01:29;77042.66;;;-144.09;65.05
8890;BME280;4481;43.406;24.454;2023-02-22T01:03:56;77021.75;;;-144.09;64.50
8890;BME280;4481;43.406;24.454;2023-02-22T01:06:22;77009.22;;;-144.09;64.49
8890;BME280;4481;43.406;24.454;2023-02-22T01:08:48;77007.13;;;-144.09;64.34
8890;BME280;4481;43.406;24.454;2023-02-22T01:11:15;77005.03;;;-144.09;64.39
8890;BME280;4481;43.406;24.454;2023-02-22T01:13:42;76998.78;;;-144.09;64.24
8890;BME280;4481;43.406;24.454;2023-02-22T01:16:09;76998.78;;;-144.09;64.23
8890;BME280;4481;43.406;24.454;2023-02-22T01:18:36;76994.59;;;-144.09;64.22
8890;BME280;4481;43.406;24.454;2023-02-22T01:21:03;77002.94;;;-144.09;64.65
8890;BME280;4481;43.406;24.454;2023-02-22T01:23:30;77000.88;;;-144.09;64.86
8890;BME280;4481;43.406;24.454;2023-02-22T01:25:56;76996.69;;;-144.09;64.91
8890;BME280;4481;43.406;24.454;2023-02-22T01:28:23;76994.59;;;-144.09;65.35
8890;BME280;4481;43.406;24.454;2023-02-22T01:30:49;76996.69;;;-144.09;65.33
8890;BME280;4481;43.406;24.454;2023-02-22T01:33:15;76998.78;;;-144.09;65.74
8890;BME280;4481;43.406;24.454;2023-02-22T01:35:42;76990.41;;;-144.09;65.98
8890;BME280;4481;43.406;24.454;2023-02-22T01:38:11;77009.22;;;-144.09;66.24
8890;BME280;4481;43.406;24.454;2023-02-22T01:40:39;77007.13;;;-144.09;66.41
8890;BME280;4481;43.406;24.454;2023-02-22T01:43:16;77011.31;;;-144.09;66.23
8890;BME280;4481;43.406;24.454;2023-02-22T01:45:48;77021.75;;;-144.09;65.83
8890;BME280;4481;43.406;24.454;2023-02-22T01:48:18;77032.22;;;-144.09;65.67
8890;BME280;4481;43.406;24.454;2023-02-22T01:50:56;77040.56;;;-144.09;65.82
8890;BME280;4481;43.406;24.454;2023-02-22T01:53:27;77074.00;;;-144.09;66.44
8890;BME280;4481;43.406;24.454;2023-02-22T01:55:55;77090.72;;;-144.09;66.99
8890;BME280;4481;43.406;24.454;2023-02-22T01:58:23;77113.72;;;-144.09;67.34
8890;BME280;4481;43.406;24.454;2023-02-22T02:00:51;77128.34;;;-144.09;68.19
8890;BME280;4481;43.406;24.454;2023-02-22T02:03:18;77138.78;;;-144.09;68.72
8890;BME280;4481;43.406;24.454;2023-02-22T02:05:47;77117.91;;;-144.09;68.04
8890;BME280;4481;43.406;24.454;2023-02-22T02:08:20;77130.44;;;-144.09;68.40
8890;BME280;4481;43.406;24.454;2023-02-22T02:10:48;77140.88;;;-144.09;69.14
8890;BME280;4481;43.406;24.454;2023-02-22T02:13:14;77140.88;;;-144.09;69.08
8890;BME280;4481;43.406;24.454;2023-02-22T02:15:41;77153.41;;;-144.09;69.55
8890;BME280;4481;43.406;24.454;2023-02-22T02:18:10;77136.69;;;-144.09;69.55
8890;BME280;4481;43.406;24.454;2023-02-22T02:20:42;77140.88;;;-144.09;69.52
8890;BME280;4481;43.406;24.454;2023-02-22T02:23:51;77128.34;;;-144.09;69.57
8890;BME280;4481;43.406;24.454;2023-02-22T02:26:53;77132.53;;;-144.09;69.82
8890;BME280;4481;43.406;24.454;2023-02-22T02:30:04;77128.34;;;-144.09;70.26
8890;BME280;4481;43.406;24.454;2023-02-22T02:33:02;77126.25;;;-144.09;70.45
8890;BME280;4481;43.406;24.454;2023-02-22T02:35:48;77128.34;;;-144.09;70.49
8890;BME280;4481;43.406;24.454;2023-02-22T02:38:22;77115.81;;;-144.09;70.50
8890;BME280;4481;43.406;24.454;2023-02-22T02:40:58;77124.16;;;-144.09;71.00
8890;BME280;4481;43.406;24.454;2023-02-22T02:43:31;77124.16;;;-144.09;71.34
8890;BME280;4481;43.406;24.454;2023-02-22T02:46:04;77122.06;;;-144.09;71.40
8890;BME280;4481;43.406;24.454;2023-02-22T02:48:34;77124.16;;;-144.09;71.46
8890;BME280;4481;43.406;24.454;2023-02-22T02:51:02;77117.91;;;-144.09;71.54
8890;BME280;4481;43.406;24.454;2023-02-22T02:53:34;77128.34;;;-144.09;72.12
8890;BME280;4481;43.406;24.454;2023-02-22T02:56:01;77126.25;;;-144.09;72.22
8890;BME280;4481;43.406;24.454;2023-02-22T02:58:28;77113.72;;;-144.09;71.68
8890;BME280;4481;43.406;24.454;2023-02-22T03:00:56;77122.06;;;-144.09;72.00
8890;BME280;4481;43.406;24.454;2023-02-22T03:03:43;77122.06;;;-144.09;71.94
8890;BME280;4481;43.406;24.454;2023-02-22T03:06:39;77115.81;;;-144.09;71.72
8890;BME280;4481;43.406;24.454;2023-02-22T03:09:19;77124.16;;;-144.09;71.79
8890;BME280;4481;43.406;24.454;2023-02-22T03:11:55;77117.91;;;-144.09;71.97
8890;BME280;4481;43.406;24.454;2023-02-22T03:14:33;77122.06;;;-144.09;71.99
8890;BME280;4481;43.406;24.454;2023-02-22T03:17:12;77140.88;;;-144.09;73.04
8890;BME280;4481;43.406;24.454;2023-02-22T03:19:48;77138.78;;;-144.09;73.49
8890;BME280;4481;43.406;24.454;2023-02-22T03:22:19;77136.69;;;-144.09;73.04
8890;BME280;4481;43.406;24.454;2023-02-22T03:24:54;77124.16;;;-144.09;73.22
8890;BME280;4481;43.406;24.454;2023-02-22T03:27:26;77126.25;;;-144.09;73.13
8890;BME280;4481;43.406;24.454;2023-02-22T03:29:57;77132.53;;;-144.09;72.97
8890;BME280;4481;43.406;24.454;2023-02-22T03:32:30;77126.25;;;-144.09;73.20
8890;BME280;4481;43.406;24.454;2023-02-22T03:35:04;77122.06;;;-144.09;73.01
8890;BME280;4481;43.406;24.454;2023-02-22T03:37:33;77124.16;;;-144.09;72.99
8890;BME280;4481;43.406;24.454;2023-02-22T03:40:04;77130.44;;;-144.09;73.14
8890;BME280;4481;43.406;24.454;2023-02-22T03:42:39;77134.63;;;-144.09;73.60
8890;BME280;4481;43.406;24.454;2023-02-22T03:45:10;77153.41;;;-144.09;74.33
8890;BME280;4481;43.406;24.454;2023-02-22T03:47:42;77159.69;;;-144.09;74.13
8890;BME280;4481;43.406;24.454;2023-02-22T03:50:12;77180.59;;;-144.09;75.45
8890;BME280;4481;43.406;24.454;2023-02-22T03:52:40;77211.94;;;-144.09;76.33
8890;BME280;4481;43.406;24.454;2023-02-22T03:55:08;77232.84;;;-144.09;76.67
8890;BME280;4481;43.406;24.454;2023-02-22T03:57:39;77245.38;;;-144.09;76.53
8890;BME280;4481;43.406;24.454;2023-02-22T04:00:08;77234.94;;;-144.09;75.56
8890;BME280;4481;43.406;24.454;2023-02-22T04:02:35;77245.38;;;-144.09;75.41
8890;BME280;4481;43.406;24.454;2023-02-22T04:05:02;77276.72;;;-144.09;75.74
8890;BME280;4481;43.406;24.454;2023-02-22T04:07:28;77333.16;;;-144.09;77.23
8890;BME280;4481;43.406;24.454;2023-02-22T04:09:54;77347.78;;;-144.09;78.16
8890;BME280;4481;43.406;24.454;2023-02-22T04:12:21;77356.16;;;-144.09;78.52
8890;BME280;4481;43.406;24.454;2023-02-22T04:14:47;77383.31;;;-144.09;79.30
8890;BME280;4481;43.406;24.454;2023-02-22T04:17:13;77347.78;;;-144.09;78.37
8890;BME280;4481;43.406;24.454;2023-02-22T04:19:39;77324.81;;;-144.09;77.74
8890;BME280;4481;43.406;24.454;2023-02-22T04:22:05;77351.97;;;-144.09;78.04
8890;BME280;4481;43.406;24.454;2023-02-22T04:24:32;77324.81;;;-144.09;77.29
8890;BME280;4481;43.406;24.454;2023-02-22T04:26:58;77341.53;;;-144.09;77.88
8890;BME280;4481;43.406;24.454;2023-02-22T04:29:24;77337.34;;;-144.09;77.98
8890;BME280;4481;43.406;24.454;2023-02-22T04:31:51;77335.25;;;-144.09;77.96
8890;BME280;4481;43.406;24.454;2023-02-22T04:34:17;77331.06;;;-144.09;77.65
8890;BME280;4481;43.406;24.454;2023-02-22T04:36:43;77326.88;;;-144.09;77.05
8890;BME280;4481;43.406;24.454;2023-02-22T04:39:09;77339.44;;;-144.09;77.63
8890;BME280;4481;43.406;24.454;2023-02-22T04:41:36;77339.44;;;-144.09;77.95
8890;BME280;4481;43.406;24.454;2023-02-22T04:44:02;77347.78;;;-144.09;78.31
8890;BME280;4481;43.406;24.454;2023-02-22T04:46:28;77370.78;;;-144.09;78.58
8890;BME280;4481;43.406;24.454;2023-02-22T04:48:55;77345.69;;;-144.09;77.86
8890;BME280;4481;43.406;24.454;2023-02-22T04:51:22;77345.69;;;-144.09;77.36
8890;BME280;4481;43.406;24.454;2023-02-22T04:53:48;77370.78;;;-144.09;78.51
8890;BME280;4481;43.406;24.454;2023-02-22T04:56:16;77423.03;;;-144.09;80.12
8890;BME280;4481;43.406;24.454;2023-02-22T04:58:43;77435.56;;;-144.09;80.81
8890;BME280;4481;43.406;24.454;2023-02-22T05:01:10;77485.72;;;-144.09;82.38
8890;BME280;4481;43.406;24.454;2023-02-22T05:03:36;77487.81;;;-144.09;83.37
8890;BME280;4481;43.406;24.454;2023-02-22T05:06:03;77471.09;;;-144.09;83.27
8890;BME280;4481;43.406;24.454;2023-02-22T05:08:29;77481.56;;;-144.09;83.33
8890;BME280;4481;43.406;24.454;2023-02-22T05:10:55;77494.09;;;-144.09;83.54
8890;BME280;4481;43.406;24.454;2023-02-22T05:13:21;77469.00;;;-144.09;81.63
8890;BME280;4481;43.406;24.454;2023-02-22T05:15:48;77464.84;;;-144.09;81.44
8890;BME280;4481;43.406;24.454;2023-02-22T05:18:14;77469.00;;;-144.09;82.00
8890;BME280;4481;43.406;24.454;2023-02-22T05:20:40;77471.09;;;-144.09;82.50
8890;BME280;4481;43.406;24.454;2023-02-22T05:23:07;77496.19;;;-144.09;83.15
8890;BME280;4481;43.406;24.454;2023-02-22T05:25:33;77533.81;;;-144.09;84.46
8890;BME280;4481;43.406;24.454;2023-02-22T05:28:01;77548.44;;;-144.09;85.31
8890;BME280;4481;43.406;24.454;2023-02-22T05:30:29;77563.06;;;-144.09;85.32
8890;BME280;4481;43.406;24.454;2023-02-22T05:32:56;77550.53;;;-144.09;84.86
8890;BME280;4481;43.406;24.454;2023-02-22T05:35:24;77542.16;;;-144.09;85.69
8890;BME280;4481;43.406;24.454;2023-02-22T05:37:50;77533.81;;;-144.09;85.34
8890;BME280;4481;43.406;24.454;2023-02-22T05:40:17;77531.72;;;-144.09;85.01
8890;BME280;4481;43.406;24.454;2023-02-22T05:42:44;77538.00;;;-144.09;85.17
8890;BME280;4481;43.406;24.454;2023-02-22T05:45:12;77510.81;;;-144.09;83.72
8890;BME280;4481;43.406;24.454;2023-02-22T05:47:38;77504.53;;;-144.09;83.26
8890;BME280;4481;43.406;24.454;2023-02-22T05:50:08;77492.00;;;-144.09;82.29
8890;BME280;4481;43.406;24.454;2023-02-22T05:52:36;77496.19;;;-144.09;82.48
8890;BME280;4481;43.406;24.454;2023-02-22T05:55:03;77485.72;;;-144.09;82.14
8890;BME280;4481;43.406;24.454;2023-02-22T05:57:29;77473.19;;;-144.09;81.52
8890;BME280;4481;43.406;24.454;2023-02-22T05:59:56;77487.81;;;-144.09;81.89
8890;BME280;4481;43.406;24.454;2023-02-22T06:02:22;77487.81;;;-144.09;81.72
8890;BME280;4481;43.406;24.454;2023-02-22T06:04:48;77466.94;;;-144.09;81.61
8890;BME280;4481;43.406;24.454;2023-02-22T06:07:15;77452.28;;;-144.09;80.78
8890;BME280;4481;43.406;24.454;2023-02-22T06:09:42;77452.28;;;-144.09;80.58
8890;BME280;4481;43.406;24.454;2023-02-22T06:12:08;77437.66;;;-144.09;79.91
8890;BME280;4481;43.406;24.454;2023-02-22T06:14:35;77420.94;;;-144.09;79.39
8890;BME280;4481;43.406;24.454;2023-02-22T06:17:01;77410.50;;;-144.09;79.11
8890;BME280;4481;43.406;24.454;2023-02-22T06:19:27;77400.03;;;-144.09;78.83
8890;BME280;4481;43.406;24.454;2023-02-22T06:21:55;77383.31;;;-144.09;78.17
8890;BME280;4481;43.406;24.454;2023-02-22T06:24:22;77372.88;;;-144.09;77.61
8890;BME280;4481;43.406;24.454;2023-02-22T06:26:53;77389.59;;;-144.09;78.24
8890;BME280;4481;43.406;24.454;2023-02-22T06:29:20;77368.69;;;-144.09;77.99
8890;BME280;4481;43.406;24.454;2023-02-22T06:31:47;77345.69;;;-144.09;77.50
8890;BME280;4481;43.406;24.454;2023-02-22T06:34:13;77341.53;;;-144.09;77.04
8890;BME280;4481;43.406;24.454;2023-02-22T06:36:40;77320.63;;;-144.09;76.44
8890;BME280;4481;43.406;24.454;2023-02-22T06:39:06;77278.81;;;-144.09;75.35
8890;BME280;4481;43.406;24.454;2023-02-22T06:41:37;77255.81;;;-144.09;74.48
8890;BME280;4481;43.406;24.454;2023-02-22T06:44:03;77228.66;;;-144.09;73.54
8890;BME280;4481;43.406;24.454;2023-02-22T06:46:30;77205.66;;;-144.09;72.49
8890;BME280;4481;43.406;24.454;2023-02-22T06:48:56;77178.50;;;-144.09;71.87
8890;BME280;4481;43.406;24.454;2023-02-22T06:51:24;77188.94;;;-144.09;72.46
8890;BME280;4481;43.406;24.454;2023-02-22T06:53:50;77184.78;;;-144.09;72.69
8890;BME280;4481;43.406;24.454;2023-02-22T06:56:18;77174.31;;;-144.09;72.09
8890;BME280;4481;43.406;24.454;2023-02-22T06:58:45;77168.06;;;-144.09;71.60
8890;BME280;4481;43.406;24.454;2023-02-22T07:01:12;77138.78;;;-144.09;71.31
8890;BME280;4481;43.406;24.454;2023-02-22T07:03:38;77097.00;;;-144.09;70.31
8890;BME280;4481;43.406;24.454;2023-02-22T07:06:06;77051.00;;;-144.09;69.18
8890;BME280;4481;43.406;24.454;2023-02-22T07:08:32;77034.28;;;-144.09;68.73
8890;BME280;4481;43.406;24.454;2023-02-22T07:10:59;77023.84;;;-144.09;67.18
8890;BME280;4481;43.406;24.454;2023-02-22T07:13:26;77042.66;;;-144.09;67.37
8890;BME280;4481;43.406;24.454;2023-02-22T07:15:54;77009.22;;;-144.09;66.31
8890;BME280;4481;43.406;24.454;2023-02-22T07:18:20;76992.50;;;-144.09;65.77
8890;BME280;4481;43.406;24.454;2023-02-22T07:20:46;76984.16;;;-144.09;63.86
8890;BME280;4481;43.406;24.454;2023-02-22T07:23:15;76952.78;;;-144.09;62.97
8890;BME280;4481;43.406;24.454;2023-02-22T07:25:42;76944.44;;;-144.09;62.99
8890;BME280;4481;43.406;24.454;2023-02-22T07:28:09;76936.06;;;-144.09;62.19
8890;BME280;4481;43.406;24.454;2023-02-22T07:30:36;76923.53;;;-144.09;62.05
8890;BME280;4481;43.406;24.454;2023-02-22T07:33:04;76892.19;;;-144.09;62.06
8890;BME280;4481;43.406;24.454;2023-02-22T07:35:32;76885.91;;;-144.09;60.91
8890;BME280;4481;43.406;24.454;2023-02-22T07:38:01;76885.91;;;-144.09;61.07
8890;BME280;4481;43.406;24.454;2023-02-22T07:40:27;76894.28;;;-144.09;61.07
8890;BME280;4481;43.406;24.454;2023-02-22T07:42:55;76894.28;;;-144.09;61.39
8890;BME280;4481;43.406;24.454;2023-02-22T07:45:23;76877.56;;;-144.09;61.22
8890;BME280;4481;43.406;24.454;2023-02-22T07:47:49;76852.47;;;-144.09;60.91
8890;BME280;4481;43.406;24.454;2023-02-22T07:50:17;76850.41;;;-144.09;60.29
8890;BME280;4481;43.406;24.454;2023-02-22T07:52:44;76844.13;;;-144.09;60.35
8890;BME280;4481;43.406;24.454;2023-02-22T07:55:12;76827.41;;;-144.09;60.06
8890;BME280;4481;43.406;24.454;2023-02-22T07:57:39;76812.78;;;-144.09;59.48
8890;BME280;4481;43.406;24.454;2023-02-22T08:00:06;76846.22;;;-144.09;60.16
8890;BME280;4481;43.406;24.454;2023-02-22T08:02:32;76823.22;;;-144.09;59.69
8890;BME280;4481;43.406;24.454;2023-02-22T08:04:58;76827.41;;;-144.09;59.07
8890;BME280;4481;43.406;24.454;2023-02-22T08:07:26;76827.41;;;-144.09;58.94
8890;BME280;4481;43.406;24.454;2023-02-22T08:09:52;76833.69;;;-144.09;59.62
8890;BME280;4481;43.406;24.454;2023-02-22T08:12:18;76800.25;;;-144.09;58.73
8890;BME280;4481;43.406;24.454;2023-02-22T08:14:45;76781.44;;;-144.09;58.77
8890;BME280;4481;43.406;24.454;2023-02-22T08:17:11;76762.63;;;-144.09;58.30
8890;BME280;4481;43.406;24.454;2023-02-22T08:19:38;76756.34;;;-144.09;57.56
8890;BME280;4481;43.406;24.454;2023-02-22T08:22:04;76739.63;;;-144.09;57.47
8890;BME280;4481;43.406;24.454;2023-02-22T08:24:31;76727.09;;;-144.09;57.45
8890;BME280;4481;43.406;24.454;2023-02-22T08:26:57;76716.66;;;-144.09;57.49
8890;BME280;4481;43.406;24.454;2023-02-22T08:29:23;76722.94;;;-144.09;57.17
8890;BME280;4481;43.406;24.454;2023-02-22T08:31:58;76722.94;;;-144.09;56.61
8890;BME280;4481;43.406;24.454;2023-02-22T08:34:24;76722.94;;;-144.09;57.01
8890;BME280;4481;43.406;24.454;2023-02-22T08:36:51;76712.47;;;-144.09;56.87
8890;BME280;4481;43.406;24.454;2023-02-22T08:39:17;76695.75;;;-144.09;56.62
8890;BME280;4481;43.406;24.454;2023-02-22T08:41:45;76681.13;;;-144.09;56.71
8890;BME280;4481;43.406;24.454;2023-02-22T08:44:12;76676.94;;;-144.09;57.07
8890;BME280;4481;43.406;24.454;2023-02-22T08:46:38;76643.53;;;-144.09;55.92
8890;BME280;4481;43.406;24.454;2023-02-22T08:49:04;76635.16;;;-144.09;56.05
8890;BME280;4481;43.406;24.454;2023-02-22T08:51:33;76618.44;;;-144.09;56.93
8890;BME280;4481;43.406;24.454;2023-02-22T08:54:00;76620.53;;;-144.09;55.73
8890;BME280;4481;43.406;24.454;2023-02-22T08:56:27;76630.97;;;-144.09;55.64
8890;BME280;4481;43.406;24.454;2023-02-22T08:58:56;76614.25;;;-144.09;55.72
8890;BME280;4481;43.406;24.454;2023-02-22T09:01:22;76612.19;;;-144.09;55.50
8890;BME280;4481;43.406;24.454;2023-02-22T09:03:48;76601.72;;;-144.09;55.32
8890;BME280;4481;43.406;24.454;2023-02-22T09:06:15;76612.19;;;-144.09;55.45
8890;BME280;4481;43.406;24.454;2023-02-22T09:08:41;76599.63;;;-144.09;55.54
8890;BME280;4481;43.406;24.454;2023-02-22T09:11:07;76618.44;;;-144.09;56.21
8890;BME280;4481;43.406;24.454;2023-02-22T09:13:34;76622.63;;;-144.09;56.74
8890;BME280;4481;43.406;24.454;2023-02-22T09:16:04;76591.28;;;-144.09;55.75
8890;BME280;4481;43.406;24.454;2023-02-22T09:18:31;76585.00;;;-144.09;55.63
8890;BME280;4481;43.406;24.454;2023-02-22T09:20:57;76589.19;;;-144.09;55.63
8890;BME280;4481;43.406;24.454;2023-02-22T09:23:24;76587.09;;;-144.09;55.57
8890;BME280;4481;43.406;24.454;2023-02-22T09:25:51;76582.91;;;-144.09;55.76
8890;BME280;4481;43.406;24.454;2023-02-22T09:28:18;76570.38;;;-144.09;56.03
8890;BME280;4481;43.406;24.454;2023-02-22T09:30:44;76551.56;;;-144.09;55.59
8890;BME280;4481;43.406;24.454;2023-02-22T09:33:14;76526.50;;;-144.09;54.95
8890;BME280;4481;43.406;24.454;2023-02-22T09:35:42;76526.50;;;-144.09;55.72
8890;BME280;4481;43.406;24.454;2023-02-22T09:38:11;76518.16;;;-144.09;55.03
8890;BME280;4481;43.406;24.454;2023-02-22T09:40:41;76488.88;;;-144.09;54.87
8890;BME280;4481;43.406;24.454;2023-02-22T09:43:32;76461.72;;;-144.09;54.41
8890;BME280;4481;43.406;24.454;2023-02-22T09:46:12;76459.63;;;-144.09;55.08
8890;BME280;4481;43.406;24.454;2023-02-22T09:48:54;76451.28;;;-144.09;54.30
8890;BME280;4481;43.406;24.454;2023-02-22T09:51:24;76445.00;;;-144.09;54.02
8890;BME280;4481;43.406;24.454;2023-02-22T09:53:54;76438.75;;;-144.09;55.02
8890;BME280;4481;43.406;24.454;2023-02-22T09:56:23;76430.38;;;-144.09;55.38
8890;BME280;4481;43.406;24.454;2023-02-22T09:58:54;76407.41;;;-144.09;54.30
8890;BME280;4481;43.406;24.454;2023-02-22T10:01:25;76396.94;;;-144.09;54.40
8890;BME280;4481;43.406;24.454;2023-02-22T10:03:58;76401.13;;;-144.09;53.86
8890;BME280;4481;43.406;24.454;2023-02-22T10:06:27;76407.41;;;-144.09;54.46
8890;BME280;4481;43.406;24.454;2023-02-22T10:08:58;76409.50;;;-144.09;53.92
8890;BME280;4481;43.406;24.454;2023-02-22T10:11:47;76403.22;;;-144.09;52.93
8890;BME280;4481;43.406;24.454;2023-02-22T10:14:36;76392.78;;;-144.09;52.56
8890;BME280;4481;43.406;24.454;2023-02-22T10:17:14;76403.22;;;-144.09;52.97
8890;BME280;4481;43.406;24.454;2023-02-22T10:19:52;76382.31;;;-144.09;52.34
8890;BME280;4481;43.406;24.454;2023-02-22T10:22:38;76401.13;;;-144.09;52.49
8890;BME280;4481;43.406;24.454;2023-02-22T10:25:10;76396.94;;;-144.09;53.37
8890;BME280;4481;43.406;24.454;2023-02-22T10:27:40;76376.06;;;-144.09;53.07
8890;BME280;4481;43.406;24.454;2023-02-22T10:30:15;76367.69;;;-144.09;52.68
8890;BME280;4481;43.406;24.454;2023-02-22T10:32:46;76359.34;;;-144.09;53.62
8890;BME280;4481;43.406;24.454;2023-02-22T10:35:20;76355.16;;;-144.09;52.90
8890;BME280;4481;43.406;24.454;2023-02-22T10:37:47;76371.88;;;-144.09;54.06
8890;BME280;4481;43.406;24.454;2023-02-22T10:40:19;76338.44;;;-144.09;53.23
8890;BME280;4481;43.406;24.454;2023-02-22T10:42:47;76323.81;;;-144.09;51.68
8890;BME280;4481;43.406;24.454;2023-02-22T10:45:19;76325.91;;;-144.09;52.00
8890;BME280;4481;43.406;24.454;2023-02-22T10:47:47;76323.81;;;-144.09;52.91
8890;BME280;4481;43.406;24.454;2023-02-22T10:50:14;76307.09;;;-144.09;52.16
8890;BME280;4481;43.406;24.454;2023-02-22T10:52:41;76309.19;;;-144.09;52.02
8890;BME280;4481;43.406;24.454;2023-02-22T10:55:11;76305.03;;;-144.09;51.99
8890;BME280;4481;43.406;24.454;2023-02-22T10:57:39;76305.03;;;-144.09;52.38
8890;BME280;4481;43.406;24.454;2023-02-22T11:00:15;76307.09;;;-144.09;51.38
8890;BME280;4481;43.406;24.454;2023-02-22T11:02:50;76315.47;;;-144.09;52.51
8890;BME280;4481;43.406;24.454;2023-02-22T11:05:30;76309.19;;;-144.09;51.82
8890;BME280;4481;43.406;24.454;2023-02-22T11:08:25;76307.09;;;-144.09;51.70
8890;BME280;4481;43.406;24.454;2023-02-22T11:10:54;76296.66;;;-144.09;51.58
8890;BME280;4481;43.406;24.454;2023-02-22T11:13:26;76296.66;;;-144.09;51.14
8890;BME280;4481;43.406;24.454;2023-02-22T11:15:53;76309.19;;;-144.09;50.95
8890;BME280;4481;43.406;24.454;2023-02-22T11:18:26;76294.56;;;-144.09;50.75
8890;BME280;4481;43.406;24.454;2023-02-22T11:21:01;76292.47;;;-144.09;51.02
8890;BME280;4481;43.406;24.454;2023-02-22T11:23:29;76296.66;;;-144.09;50.83
8890;BME280;4481;43.406;24.454;2023-02-22T11:26:03;76282.03;;;-144.09;50.61
8890;BME280;4481;43.406;24.454;2023-02-22T11:28:31;76277.84;;;-144.09;50.29
8890;BME280;4481;43.406;24.454;2023-02-22T11:31:09;76275.75;;;-144.09;49.80
8890;BME280;4481;43.406;24.454;2023-02-22T11:33:36;76267.41;;;-144.09;49.64
8890;BME280;4481;43.406;24.454;2023-02-22T11:36:05;76248.59;;;-144.09;49.24
8890;BME280;4481;43.406;24.454;2023-02-22T11:38:35;76242.34;;;-144.09;49.01
8890;BME280;4481;43.406;24.454;2023-02-22T11:41:09;76250.69;;;-144.09;49.32
8890;BME280;4481;43.406;24.454;2023-02-22T11:43:36;76233.97;;;-144.09;49.25
8890;BME280;4481;43.406;24.454;2023-02-22T11:46:04;76227.72;;;-144.09;49.07
8890;BME280;4481;43.406;24.454;2023-02-22T11:48:34;76227.72;;;-144.09;49.50
8890;BME280;4481;43.406;24.454;2023-02-22T11:51:20;76221.44;;;-144.09;49.41
8890;BME280;4481;43.406;24.454;2023-02-22T11:54:10;76215.19;;;-144.09;48.88
8890;BME280;4481;43.406;24.454;2023-02-22T11:56:39;76229.81;;;-144.09;48.63
8890;BME280;4481;43.406;24.454;2023-02-22T11:59:15;76231.88;;;-144.09;48.87
8890;BME280;4481;43.406;24.454;2023-02-22T12:01:50;76227.72;;;-144.09;49.03
8890;BME280;4481;43.406;24.454;2023-02-22T12:04:38;76213.09;;;-144.09;49.24
8890;BME280;4481;43.406;24.454;2023-02-22T12:07:22;76200.56;;;-144.09;49.61
8890;BME280;4481;43.406;24.454;2023-02-22T12:09:56;76190.09;;;-144.09;48.56
8890;BME280;4481;43.406;24.454;2023-02-22T12:12:34;76179.66;;;-144.09;48.63
8890;BME280;4481;43.406;24.454;2023-02-22T12:15:08;76173.38;;;-144.09;48.87
8890;BME280;4481;43.406;24.454;2023-02-22T12:17:48;76190.09;;;-144.09;48.88
8890;BME280;4481;43.406;24.454;2023-02-22T12:20:17;76190.09;;;-144.09;48.56
8890;BME280;4481;43.406;24.454;2023-02-22T12:22:54;76175.47;;;-144.09;48.45
8890;BME280;4481;43.406;24.454;2023-02-22T12:25:28;76179.66;;;-144.09;48.59
8890;BME280;4481;43.406;24.454;2023-02-22T12:27:58;76188.00;;;-144.09;48.72
8890;BME280;4481;43.406;24.454;2023-02-22T12:30:29;76194.28;;;-144.09;48.96
8890;BME280;4481;43.406;24.454;2023-02-22T12:32:59;76192.19;;;-144.09;48.91
8890;BME280;4481;43.406;24.454;2023-02-22T12:35:30;76181.75;;;-144.09;49.12
8890;BME280;4481;43.406;24.454;2023-02-22T12:38:03;76200.56;;;-144.09;49.57
8890;BME280;4481;43.406;24.454;2023-02-22T12:40:40;76196.38;;;-144.09;49.35
8890;BME280;4481;43.406;24.454;2023-02-22T12:43:14;76200.56;;;-144.09;49.14
8890;BME280;4481;43.406;24.454;2023-02-22T12:45:44;76192.19;;;-144.09;49.68
8890;BME280;4481;43.406;24.454;2023-02-22T12:48:25;76204.72;;;-144.09;49.61
8890;BME280;4481;43.406;24.454;2023-02-22T12:50:58;76188.00;;;-144.09;49.37
8890;BME280;4481;43.406;24.454;2023-02-22T12:53:30;76194.28;;;-144.09;49.50
8890;BME280;4481;43.406;24.454;2023-02-22T12:56:11;76185.94;;;-144.09;48.87
8890;BME280;4481;43.406;24.454;2023-02-22T12:58:45;76177.56;;;-144.09;48.67
8890;BME280;4481;43.406;24.454;2023-02-22T13:01:16;76185.94;;;-144.09;48.95
8890;BME280;4481;43.406;24.454;2023-02-22T13:03:44;76183.84;;;-144.09;49.20